createdAt,value
2022-11-24T00:01:28.001Z,99.90
2022-11-24T00:03:29.696Z,99.90
2022-11-24T00:05:31.457Z,99.90
2022-11-24T00:07:33.272Z,99.90
2022-11-24T00:09:35.017Z,99.90
2022-11-24T00:11:37.363Z,99.90
2022-11-24T00:13:39.594Z,99.90
2022-11-24T00:15:41.371Z,99.90
2022-11-24T00:17:43.063Z,99.90
2022-11-24T00:19:45.052Z,99.90
2022-11-24T00:21:46.725Z,99.90
2022-11-24T00:23:49.488Z,99.90
2022-11-24T00:25:51.246Z,99.90
2022-11-24T00:27:52.945Z,99.90
2022-11-24T00:29:54.669Z,99.90
2022-11-24T00:31:57.113Z,99.90
2022-11-24T00:34:01.226Z,99.90
2022-11-24T00:36:02.927Z,99.90
2022-11-24T00:38:04.647Z,99.90
2022-11-24T00:40:07.109Z,99.90
2022-11-24T00:42:08.854Z,99.90
2022-11-24T00:44:10.657Z,99.90
2022-11-24T00:46:12.417Z,99.90
2022-11-24T00:48:14.218Z,99.90
2022-11-24T00:50:16.270Z,99.90
2022-11-24T00:52:17.951Z,99.90
2022-11-24T00:54:19.672Z,99.90
2022-11-24T00:56:21.433Z,99.90
2022-11-24T00:58:24.730Z,99.90
2022-11-24T01:00:26.576Z,99.90
2022-11-24T01:02:28.363Z,99.90
2022-11-24T01:04:30.067Z,99.90
2022-11-24T01:06:32.605Z,99.90
2022-11-24T01:08:36.445Z,99.90
2022-11-24T01:10:38.533Z,99.90
2022-11-24T01:12:40.224Z,99.90
2022-11-24T01:14:42.076Z,99.90
2022-11-24T01:16:43.821Z,99.90
2022-11-24T01:18:46.216Z,99.90
2022-11-24T01:20:47.902Z,99.90
2022-11-24T01:22:50.292Z,99.90
2022-11-24T01:24:52.020Z,99.90
2022-11-24T01:26:53.740Z,99.90
2022-11-24T01:28:58.494Z,99.90
2022-11-24T01:31:02.247Z,99.90
2022-11-24T01:33:04.024Z,99.90
2022-11-24T01:35:06.735Z,99.90
2022-11-24T01:37:08.484Z,99.90
2022-11-24T01:39:10.385Z,99.90
2022-11-24T01:41:12.089Z,99.90
2022-11-24T01:43:18.252Z,99.90
2022-11-24T01:45:28.316Z,99.90
2022-11-24T01:47:40.787Z,99.90
2022-11-24T01:49:49.145Z,99.90
2022-11-24T01:52:08.719Z,99.90
2022-11-24T01:54:20.591Z,99.90
2022-11-24T01:56:22.777Z,99.90
2022-11-24T01:58:29.191Z,99.90
2022-11-24T02:00:31.592Z,99.90
2022-11-24T02:02:33.700Z,99.90
2022-11-24T02:04:37.017Z,99.90
2022-11-24T02:06:42.326Z,99.90
2022-11-24T02:08:51.055Z,99.90
2022-11-24T02:10:53.387Z,99.90
2022-11-24T02:12:57.334Z,99.90
2022-11-24T02:14:59.792Z,99.90
2022-11-24T02:17:01.632Z,99.90
2022-11-24T02:19:28.050Z,99.90
2022-11-24T02:21:29.782Z,99.90
2022-11-24T02:23:51.738Z,99.90
2022-11-24T02:25:56.193Z,99.90
2022-11-24T02:28:00.577Z,99.90
2022-11-24T02:30:02.516Z,99.90
2022-11-24T02:32:07.270Z,99.90
2022-11-24T02:34:09.030Z,99.90
2022-11-24T02:36:10.872Z,99.90
2022-11-24T02:38:15.856Z,99.90
2022-11-24T02:40:25.131Z,99.90
2022-11-24T02:42:30.812Z,99.90
2022-11-24T02:44:41.937Z,99.90
2022-11-24T02:46:43.671Z,99.90
2022-11-24T02:48:45.590Z,99.90
2022-11-24T02:50:47.329Z,99.90
2022-11-24T02:52:49.052Z,99.90
2022-11-24T02:54:50.807Z,99.90
2022-11-24T02:56:52.833Z,99.90
2022-11-24T02:58:54.536Z,99.90
2022-11-24T03:00:57.277Z,99.90
2022-11-24T03:02:59.220Z,99.90
2022-11-24T03:05:00.984Z,99.90
2022-11-24T03:07:02.716Z,99.90
2022-11-24T03:09:05.852Z,99.90
2022-11-24T03:11:07.620Z,99.90
2022-11-24T03:13:09.564Z,99.90
2022-11-24T03:15:11.354Z,99.90
2022-11-24T03:17:13.095Z,99.90
2022-11-24T03:19:14.987Z,99.90
2022-11-24T03:21:16.969Z,99.90
2022-11-24T03:23:18.825Z,99.90
2022-11-24T03:25:20.679Z,99.90
2022-11-24T03:27:22.373Z,99.90
2022-11-24T03:29:24.210Z,99.90
2022-11-24T03:31:26.035Z,99.90
2022-11-24T03:33:27.793Z,99.90
2022-11-24T03:35:29.679Z,99.90
2022-11-24T03:37:31.436Z,99.90
2022-11-24T03:39:33.324Z,99.90
2022-11-24T03:41:35.248Z,99.90
2022-11-24T03:43:43.161Z,99.90
2022-11-24T03:45:49.608Z,99.90
2022-11-24T03:47:52.364Z,99.90
2022-11-24T03:49:54.048Z,99.90
2022-11-24T03:51:55.816Z,99.90
2022-11-24T03:53:57.491Z,99.90
2022-11-24T03:55:59.660Z,99.90
2022-11-24T03:58:01.407Z,99.90
2022-11-24T04:00:04.825Z,99.90
2022-11-24T04:02:07.788Z,99.90
2022-11-24T04:04:11.579Z,99.90
2022-11-24T04:06:13.293Z,99.90
2022-11-24T04:08:15.643Z,99.90
2022-11-24T04:10:17.523Z,99.90
2022-11-24T04:12:37.853Z,99.90
2022-11-24T04:14:39.484Z,99.90
2022-11-24T04:16:41.612Z,99.90
2022-11-24T04:18:43.511Z,99.90
2022-11-24T04:20:45.795Z,99.90
2022-11-24T04:22:47.517Z,99.90
2022-11-24T04:24:49.217Z,99.90
2022-11-24T04:26:50.856Z,99.90
2022-11-24T04:28:52.582Z,99.90
2022-11-24T04:30:54.218Z,99.90
2022-11-24T04:32:56.899Z,99.90
2022-11-24T04:34:58.700Z,99.90
2022-11-24T04:37:00.366Z,99.90
2022-11-24T04:39:19.960Z,99.90
2022-11-24T04:41:23.823Z,99.90
2022-11-24T04:43:25.549Z,99.90
2022-11-24T04:45:27.212Z,99.90
2022-11-24T04:47:28.918Z,99.90
2022-11-24T04:49:30.686Z,99.90
2022-11-24T04:51:32.401Z,99.90
2022-11-24T04:53:34.108Z,99.90
2022-11-24T04:55:38.783Z,99.90
2022-11-24T04:57:40.530Z,99.90
2022-11-24T04:59:42.156Z,99.90
2022-11-24T05:01:44.820Z,99.90
2022-11-24T05:03:46.547Z,99.90
2022-11-24T05:05:48.393Z,99.90
2022-11-24T05:07:50.059Z,99.90
2022-11-24T05:10:10.586Z,99.90
2022-11-24T05:12:12.301Z,99.90
2022-11-24T05:14:13.995Z,99.90
2022-11-24T05:16:15.776Z,99.90
2022-11-24T05:18:17.548Z,99.90
2022-11-24T05:20:19.515Z,99.90
2022-11-24T05:22:21.138Z,99.90
2022-11-24T05:24:22.799Z,99.90
2022-11-24T05:26:24.559Z,99.90
2022-11-24T05:28:26.403Z,99.90
2022-11-24T05:30:28.638Z,99.90
2022-11-24T05:32:30.314Z,99.90
2022-11-24T05:34:33.445Z,99.90
2022-11-24T05:36:53.676Z,99.90
2022-11-24T05:38:55.339Z,99.90
2022-11-24T05:41:04.432Z,99.90
2022-11-24T05:43:10.103Z,99.90
2022-11-24T05:45:14.586Z,99.90
2022-11-24T05:47:16.300Z,99.90
2022-11-24T05:49:17.961Z,99.90
2022-11-24T05:51:19.685Z,99.90
2022-11-24T05:53:21.544Z,99.90
2022-11-24T05:55:23.224Z,99.90
2022-11-24T05:57:24.908Z,99.90
2022-11-24T05:59:26.610Z,99.90
2022-11-24T06:01:28.347Z,99.90
2022-11-24T06:03:30.055Z,99.90
2022-11-24T06:05:31.903Z,99.90
2022-11-24T06:07:34.857Z,99.90
2022-11-24T06:09:38.440Z,99.90
2022-11-24T06:11:40.111Z,99.90
2022-11-24T06:13:42.009Z,99.90
2022-11-24T06:15:43.832Z,99.90
2022-11-24T06:17:52.145Z,99.90
2022-11-24T06:19:53.875Z,99.90
2022-11-24T06:21:55.754Z,99.90
2022-11-24T06:23:57.754Z,99.90
2022-11-24T06:26:00.232Z,99.90
2022-11-24T06:28:04.849Z,99.90
2022-11-24T06:30:06.866Z,99.90
2022-11-24T06:32:09.055Z,99.90
2022-11-24T06:34:12.408Z,99.90
2022-11-24T06:36:15.391Z,99.90
2022-11-24T06:38:21.486Z,99.90
2022-11-24T06:40:26.133Z,99.90
2022-11-24T06:42:27.976Z,99.90
2022-11-24T06:44:29.687Z,99.90
2022-11-24T06:46:31.611Z,99.90
2022-11-24T06:48:34.080Z,99.90
2022-11-24T06:50:35.725Z,99.90
2022-11-24T06:52:37.508Z,99.90
2022-11-24T06:54:39.136Z,99.90
2022-11-24T06:56:40.825Z,99.90
2022-11-24T06:58:44.532Z,99.90
2022-11-24T07:00:46.220Z,99.90
2022-11-24T07:02:48.092Z,99.90
2022-11-24T07:04:49.982Z,99.90
2022-11-24T07:06:51.908Z,99.90
2022-11-24T07:08:53.626Z,99.90
2022-11-24T07:10:55.321Z,84.90
2022-11-24T07:12:57.020Z,99.90
2022-11-24T07:14:58.741Z,99.90
2022-11-24T07:17:02.532Z,99.90
2022-11-24T07:19:04.307Z,99.90
2022-11-24T07:21:06.206Z,92.30
2022-11-24T07:23:08.796Z,96.40
2022-11-24T07:25:10.896Z,99.90
2022-11-24T07:27:12.629Z,99.90
2022-11-24T07:29:14.428Z,99.90
2022-11-24T07:31:18.932Z,99.90
2022-11-24T07:33:25.077Z,99.90
2022-11-24T07:35:26.944Z,99.90
2022-11-24T07:37:31.487Z,99.90
2022-11-24T07:39:33.331Z,99.90
2022-11-24T07:41:34.976Z,99.90
2022-11-24T07:43:37.823Z,99.90
2022-11-24T07:45:39.600Z,99.90
2022-11-24T07:47:41.551Z,99.90
2022-11-24T07:49:43.247Z,99.90
2022-11-24T07:51:45.297Z,99.90
2022-11-24T07:53:47.154Z,99.90
2022-11-24T07:56:02.061Z,99.90
2022-11-24T07:58:03.739Z,99.90
2022-11-24T08:00:06.014Z,99.90
2022-11-24T08:02:09.184Z,99.90
2022-11-24T08:04:10.972Z,99.90
2022-11-24T08:06:38.116Z,99.90
2022-11-24T08:08:35.640Z,99.90
2022-11-24T08:10:37.308Z,99.90
2022-11-24T08:12:39.235Z,99.90
2022-11-24T08:14:40.901Z,99.90
2022-11-24T08:16:42.646Z,99.90
2022-11-24T08:18:48.980Z,99.90
2022-11-24T08:20:50.774Z,99.90
2022-11-24T08:22:56.331Z,99.90
2022-11-24T08:24:58.167Z,99.90
2022-11-24T08:26:59.855Z,99.90
2022-11-24T08:29:01.534Z,99.90
2022-11-24T08:31:05.859Z,99.90
2022-11-24T08:33:07.588Z,99.90
2022-11-24T08:35:14.259Z,99.90
2022-11-24T08:37:16.426Z,99.90
2022-11-24T08:39:19.038Z,99.90
2022-11-24T08:41:20.765Z,99.90
2022-11-24T08:43:22.539Z,99.90
2022-11-24T08:45:25.618Z,99.90
2022-11-24T08:47:27.677Z,99.90
2022-11-24T08:49:29.488Z,99.90
2022-11-24T08:51:31.206Z,99.90
2022-11-24T08:53:32.866Z,99.90
2022-11-24T08:55:34.648Z,99.90
2022-11-24T08:57:36.292Z,99.90
2022-11-24T08:59:38.032Z,99.90
2022-11-24T09:01:40.254Z,99.90
2022-11-24T09:03:48.556Z,99.90
2022-11-24T09:05:53.350Z,99.90
2022-11-24T09:07:55.289Z,99.90
2022-11-24T09:09:56.986Z,99.90
2022-11-24T09:11:58.668Z,99.90
2022-11-24T09:14:00.596Z,99.90
2022-11-24T09:16:17.547Z,99.90
2022-11-24T09:18:19.329Z,99.90
2022-11-24T09:20:21.402Z,99.90
2022-11-24T09:22:23.164Z,99.90
2022-11-24T09:24:24.986Z,99.90
2022-11-24T09:26:29.435Z,99.90
2022-11-24T09:28:31.192Z,99.90
2022-11-24T09:30:32.906Z,99.90
2022-11-24T09:32:34.606Z,99.90
2022-11-24T09:34:36.280Z,99.90
2022-11-24T09:36:37.927Z,99.90
2022-11-24T09:38:40.071Z,99.90
2022-11-24T09:40:41.798Z,99.90
2022-11-24T09:42:58.302Z,99.90
2022-11-24T09:45:09.718Z,99.90
2022-11-24T09:47:23.058Z,99.90
2022-11-24T09:49:35.190Z,99.90
2022-11-24T09:51:38.353Z,99.90
2022-11-24T09:53:45.883Z,99.90
2022-11-24T09:55:51.393Z,99.90
2022-11-24T09:58:03.103Z,99.90
2022-11-24T10:00:12.616Z,99.90
2022-11-24T10:02:14.716Z,99.90
2022-11-24T10:04:30.121Z,99.90
2022-11-24T10:06:51.823Z,99.90
2022-11-24T10:09:12.080Z,99.90
2022-11-24T10:11:19.658Z,99.90
2022-11-24T10:13:38.468Z,99.90
2022-11-24T10:15:46.080Z,99.90
2022-11-24T10:18:16.228Z,99.90
2022-11-24T10:20:21.742Z,99.90
2022-11-24T10:22:41.631Z,99.90
2022-11-24T10:25:01.021Z,99.90
2022-11-24T10:27:28.492Z,99.90
2022-11-24T10:29:39.650Z,99.90
2022-11-24T10:31:43.561Z,99.90
2022-11-24T10:33:46.339Z,99.90
2022-11-24T10:36:17.050Z,99.90
2022-11-24T10:38:29.551Z,99.90
2022-11-24T10:40:56.468Z,99.90
2022-11-24T10:42:59.731Z,99.90
2022-11-24T10:45:10.745Z,99.90
2022-11-24T10:47:22.874Z,99.90
2022-11-24T10:49:29.926Z,99.90
2022-11-24T10:51:40.630Z,99.90
2022-11-24T10:53:43.289Z,99.90
2022-11-24T10:55:58.020Z,99.90
2022-11-24T10:58:15.813Z,99.90
2022-11-24T11:00:20.373Z,99.90
2022-11-24T11:02:35.459Z,99.90
2022-11-24T11:04:37.198Z,99.90
2022-11-24T11:06:40.590Z,99.90
2022-11-24T11:08:42.290Z,99.90
2022-11-24T11:10:45.336Z,99.90
2022-11-24T11:12:47.196Z,95.10
2022-11-24T11:14:48.856Z,99.90
2022-11-24T11:16:55.575Z,94.90
2022-11-24T11:18:57.646Z,1.00
2022-11-24T11:21:02.399Z,24.40
2022-11-24T11:23:16.843Z,99.90
2022-11-24T11:25:32.625Z,16.80
2022-11-24T11:27:34.643Z,13.70
2022-11-24T11:34:30.327Z,25.50
2022-11-24T11:36:33.459Z,45.90
2022-11-24T11:38:39.107Z,59.70
2022-11-24T11:40:42.823Z,90.80
2022-11-24T11:43:10.129Z,93.40
2022-11-24T11:45:16.614Z,99.90
2022-11-24T11:47:23.402Z,99.90
2022-11-24T11:49:25.176Z,99.90
2022-11-24T11:51:53.765Z,99.90
2022-11-24T11:54:16.461Z,1.00
2022-11-24T11:56:34.199Z,1.00
2022-11-24T11:59:04.242Z,1.00
2022-11-24T12:01:17.955Z,1.00
2022-11-24T12:03:38.496Z,1.00
2022-11-24T12:06:02.182Z,1.00
2022-11-24T12:08:21.325Z,49.30
2022-11-24T12:10:28.495Z,47.60
2022-11-24T12:13:00.810Z,49.80
2022-11-24T12:15:17.825Z,12.90
2022-11-24T12:17:28.264Z,25.40
2022-11-24T12:19:48.352Z,1.00
2022-11-24T12:22:01.733Z,42.20
2022-11-24T12:24:08.446Z,1.00
2022-11-24T12:26:41.376Z,1.00
2022-11-24T12:29:01.819Z,15.30
2022-11-24T12:31:11.146Z,27.40
2022-11-24T12:33:47.561Z,1.00
2022-11-24T12:35:56.742Z,1.00
2022-11-24T12:38:22.264Z,1.00
2022-11-24T12:40:39.768Z,1.00
2022-11-24T12:43:00.107Z,1.00
2022-11-24T12:45:01.825Z,7.30
2022-11-24T12:47:12.577Z,10.60
2022-11-24T12:49:26.397Z,1.00
2022-11-24T12:51:33.360Z,1.00
2022-11-24T12:53:37.452Z,1.00
2022-11-24T12:55:40.863Z,1.00
2022-11-24T13:00:32.699Z,1.00
2022-11-24T13:02:57.602Z,1.00
2022-11-24T13:05:11.411Z,1.00
2022-11-24T13:07:19.013Z,1.00
2022-11-24T13:09:20.969Z,1.00
2022-11-24T13:11:22.752Z,1.00
2022-11-24T13:13:29.212Z,1.00
2022-11-24T13:15:45.677Z,1.00
2022-11-24T13:18:06.813Z,1.00
2022-11-24T13:20:25.117Z,1.00
2022-11-24T13:22:26.934Z,1.00
2022-11-24T13:24:36.144Z,1.00
2022-11-24T13:26:48.683Z,1.00
2022-11-24T13:29:13.325Z,1.00
2022-11-24T13:31:25.470Z,1.00
2022-11-24T13:33:32.558Z,1.00
2022-11-24T13:35:34.311Z,37.30
2022-11-24T13:37:36.537Z,99.90
2022-11-24T13:39:58.896Z,1.00
2022-11-24T13:42:00.845Z,1.00
2022-11-24T13:44:25.426Z,1.00
2022-11-24T13:47:01.763Z,99.90
2022-11-24T13:49:14.036Z,1.00
2022-11-24T13:51:23.328Z,99.90
2022-11-24T13:53:28.150Z,30.50
2022-11-24T13:55:34.959Z,1.00
2022-11-24T13:57:39.910Z,99.90
2022-11-24T13:59:42.032Z,99.90
2022-11-24T14:01:46.762Z,99.90
2022-11-24T14:04:28.211Z,99.90
2022-11-24T14:06:25.632Z,99.90
2022-11-24T14:08:30.591Z,99.90
2022-11-24T14:10:37.434Z,99.90
2022-11-24T14:12:39.102Z,1.00
2022-11-24T14:14:41.699Z,99.90
2022-11-24T14:16:43.388Z,1.00
2022-11-24T14:18:50.644Z,99.90
2022-11-24T14:20:52.614Z,99.90
2022-11-24T14:22:54.420Z,1.00
2022-11-24T14:25:01.171Z,1.00
2022-11-24T14:27:02.861Z,1.00
2022-11-24T14:29:05.746Z,99.90
2022-11-24T14:31:24.383Z,99.90
2022-11-24T14:33:26.080Z,99.90
2022-11-24T14:35:33.044Z,99.90
2022-11-24T14:37:35.899Z,99.90
2022-11-24T14:39:42.387Z,99.90
2022-11-24T14:41:57.881Z,1.00
2022-11-24T14:44:15.124Z,63.50
2022-11-24T14:46:20.448Z,99.90
2022-11-24T14:48:30.643Z,99.90
2022-11-24T14:50:32.533Z,99.90
2022-11-24T14:52:35.247Z,1.00
2022-11-24T14:54:44.437Z,1.00
2022-11-24T14:57:01.577Z,1.00
2022-11-24T14:59:04.938Z,1.00
2022-11-24T15:01:21.033Z,1.00
2022-11-24T15:03:22.856Z,1.00
2022-11-24T15:05:25.482Z,1.00
2022-11-24T15:07:29.198Z,1.00
2022-11-24T15:09:40.639Z,1.00
2022-11-24T15:11:42.558Z,1.00
2022-11-24T15:13:54.612Z,1.00
2022-11-24T15:16:08.549Z,1.00
2022-11-24T15:18:39.711Z,1.00
2022-11-24T15:20:46.201Z,1.00
2022-11-24T15:22:49.303Z,1.00
2022-11-24T15:24:54.056Z,1.00
2022-11-24T15:27:00.606Z,1.00
2022-11-24T15:29:02.264Z,1.00
2022-11-24T15:31:06.445Z,1.00
2022-11-24T15:33:18.629Z,1.00
2022-11-24T15:35:22.656Z,1.00
2022-11-24T15:37:24.332Z,1.00
2022-11-24T15:39:26.035Z,1.00
2022-11-24T15:41:32.787Z,1.00
2022-11-24T15:43:37.055Z,1.00
2022-11-24T15:45:38.858Z,1.00
2022-11-24T15:47:40.585Z,1.00
2022-11-24T15:49:42.299Z,1.00
2022-11-24T15:51:45.832Z,1.00
2022-11-24T15:53:58.699Z,1.00
2022-11-24T15:56:05.865Z,1.00
2022-11-24T15:58:08.830Z,1.00
2022-11-24T16:00:18.516Z,1.00
2022-11-24T16:02:21.777Z,1.00
2022-11-24T16:04:23.699Z,1.00
2022-11-24T16:06:25.792Z,1.00
2022-11-24T16:08:27.787Z,1.00
2022-11-24T16:10:36.166Z,1.00
2022-11-24T16:12:37.865Z,1.00
2022-11-24T16:14:39.769Z,1.00
2022-11-24T16:16:41.772Z,1.00
2022-11-24T16:18:45.337Z,1.00
2022-11-24T16:20:47.155Z,1.00
2022-11-24T16:22:48.884Z,1.00
2022-11-24T16:24:50.609Z,1.00
2022-11-24T16:26:52.564Z,1.00
2022-11-24T16:28:54.244Z,1.00
2022-11-24T16:30:56.075Z,1.00
2022-11-24T16:32:57.894Z,1.00
2022-11-24T16:34:59.604Z,1.00
2022-11-24T16:37:01.357Z,1.00
2022-11-24T16:39:03.067Z,1.00
2022-11-24T16:41:04.851Z,1.00
2022-11-24T16:43:06.597Z,1.00
2022-11-24T16:45:12.695Z,1.00
2022-11-24T16:47:14.343Z,1.00
2022-11-24T16:49:16.133Z,1.00
2022-11-24T16:51:20.240Z,1.00
2022-11-24T16:53:21.919Z,1.00
2022-11-24T16:55:23.570Z,1.00
2022-11-24T16:57:25.252Z,1.00
2022-11-24T16:59:26.999Z,1.00
2022-11-24T17:01:30.174Z,1.00
2022-11-24T17:03:39.303Z,1.00
2022-11-24T17:05:40.953Z,1.00
2022-11-24T17:07:42.848Z,1.00
2022-11-24T17:09:44.640Z,1.00
2022-11-24T17:11:46.488Z,1.00
2022-11-24T17:13:49.176Z,1.00
2022-11-24T17:15:54.086Z,1.00
2022-11-24T17:18:23.089Z,1.00
2022-11-24T17:20:18.025Z,1.00
2022-11-24T17:22:19.693Z,1.00
2022-11-24T17:24:21.484Z,1.00
2022-11-24T17:26:23.940Z,1.00
2022-11-24T17:28:25.656Z,1.00
2022-11-24T17:30:27.300Z,1.00
2022-11-24T17:32:28.997Z,1.00
2022-11-24T17:34:30.753Z,1.00
2022-11-24T17:36:34.489Z,1.00
2022-11-24T17:38:36.815Z,1.00
2022-11-24T17:40:38.716Z,1.00
2022-11-24T17:42:40.422Z,1.00
2022-11-24T17:44:42.082Z,1.00
2022-11-24T17:46:43.758Z,1.00
2022-11-24T17:48:46.551Z,1.00
2022-11-24T17:50:48.895Z,1.00
2022-11-24T17:52:50.797Z,1.00
2022-11-24T17:54:52.437Z,1.00
2022-11-24T17:56:54.152Z,1.00
2022-11-24T17:58:58.287Z,1.00
2022-11-24T18:01:00.155Z,1.00
2022-11-24T18:03:01.888Z,1.00
2022-11-24T18:05:03.840Z,1.00
2022-11-24T18:07:05.700Z,1.00
2022-11-24T18:09:07.429Z,1.00
2022-11-24T18:11:25.958Z,1.00
2022-11-24T18:13:55.231Z,1.00
2022-11-24T18:15:52.399Z,1.00
2022-11-24T18:17:54.389Z,1.00
2022-11-24T18:19:56.046Z,1.00
2022-11-24T18:21:57.790Z,1.00
2022-11-24T18:23:59.411Z,1.00
2022-11-24T18:26:03.695Z,1.00
2022-11-24T18:28:05.397Z,1.00
2022-11-24T18:30:08.037Z,1.00
2022-11-24T18:32:09.704Z,1.00
2022-11-24T18:34:11.380Z,1.00
2022-11-24T18:36:18.943Z,1.00
2022-11-24T18:38:20.604Z,1.00
2022-11-24T18:40:22.443Z,9.70
2022-11-24T18:42:25.655Z,18.80
2022-11-24T18:44:27.569Z,23.00
2022-11-24T18:46:29.336Z,34.00
2022-11-24T18:48:31.003Z,47.50
2022-11-24T18:50:33.296Z,48.20
2022-11-24T18:52:34.948Z,53.30
2022-11-24T18:54:36.975Z,48.10
2022-11-24T18:56:38.875Z,49.90
2022-11-24T18:58:40.869Z,62.80
2022-11-24T19:00:42.515Z,73.60
2022-11-24T19:02:44.217Z,77.40
2022-11-24T19:04:46.086Z,87.30
2022-11-24T19:06:47.817Z,97.40
2022-11-24T19:08:53.125Z,99.90
2022-11-24T19:10:54.873Z,99.90
2022-11-24T19:12:56.651Z,99.90
2022-11-24T19:14:58.296Z,99.60
2022-11-24T19:17:04.051Z,93.50
2022-11-24T19:19:06.148Z,87.20
2022-11-24T19:21:07.976Z,81.70
2022-11-24T19:23:09.685Z,74.50
2022-11-24T19:25:11.332Z,69.50
2022-11-24T19:27:14.528Z,68.50
2022-11-24T19:29:16.188Z,54.70
2022-11-24T19:31:19.296Z,38.10
2022-11-24T19:33:21.522Z,24.10
2022-11-24T19:35:23.628Z,17.60
2022-11-24T19:37:25.431Z,21.60
2022-11-24T19:39:27.379Z,28.90
2022-11-24T19:41:30.930Z,39.50
2022-11-24T19:43:33.448Z,41.10
2022-11-24T19:45:35.259Z,30.00
2022-11-24T19:47:37.068Z,20.30
2022-11-24T19:49:38.806Z,10.20
2022-11-24T19:51:40.655Z,6.20
2022-11-24T19:53:43.218Z,3.30
2022-11-24T19:55:45.010Z,1.20
2022-11-24T19:57:46.865Z,1.00
2022-11-24T19:59:48.731Z,1.00
2022-11-24T20:01:50.449Z,1.00
2022-11-24T20:04:00.805Z,1.00
2022-11-24T20:06:02.764Z,3.00
2022-11-24T20:08:04.804Z,14.00
2022-11-24T20:10:08.052Z,36.50
2022-11-24T20:12:10.131Z,41.50
2022-11-24T20:14:14.068Z,19.20
2022-11-24T20:16:16.829Z,1.00
2022-11-24T20:18:18.515Z,1.00
2022-11-24T20:20:20.167Z,1.00
2022-11-24T20:22:21.868Z,1.00
2022-11-24T20:24:25.057Z,1.00
2022-11-24T20:26:29.778Z,1.00
2022-11-24T20:28:31.937Z,1.00
2022-11-24T20:30:33.698Z,1.00
2022-11-24T20:32:35.451Z,1.00
2022-11-24T20:34:37.606Z,1.00
2022-11-24T20:36:42.267Z,1.00
2022-11-24T20:38:44.689Z,1.00
2022-11-24T20:40:46.483Z,1.00
2022-11-24T20:42:48.250Z,1.00
2022-11-24T20:44:50.102Z,1.00
2022-11-24T20:46:54.248Z,1.00
2022-11-24T20:48:56.728Z,1.00
2022-11-24T20:51:28.972Z,1.00
2022-11-24T20:53:30.676Z,1.00
2022-11-24T20:55:33.531Z,1.00
2022-11-24T20:57:35.548Z,1.00
2022-11-24T20:59:37.260Z,1.00
2022-11-24T21:01:42.453Z,1.00
2022-11-24T21:03:45.715Z,1.00
2022-11-24T21:05:47.442Z,1.00
2022-11-24T21:07:49.205Z,1.00
2022-11-24T21:09:50.885Z,1.00
2022-11-24T21:11:52.647Z,1.00
2022-11-24T21:13:54.687Z,1.00
2022-11-24T21:15:56.381Z,1.00
2022-11-24T21:17:58.159Z,1.00
2022-11-24T21:20:01.249Z,1.00
2022-11-24T21:22:03.143Z,1.00
2022-11-24T21:24:12.128Z,1.00
2022-11-24T21:26:16.882Z,1.00
2022-11-24T21:28:18.686Z,1.00
2022-11-24T21:30:20.419Z,9.40
2022-11-24T21:32:22.088Z,9.20
2022-11-24T21:34:23.756Z,22.70
2022-11-24T21:36:26.652Z,39.80
2022-11-24T21:38:28.480Z,76.30
2022-11-24T21:40:30.232Z,95.50
2022-11-24T21:42:31.919Z,99.90
2022-11-24T21:44:33.874Z,99.90
2022-11-24T21:46:43.643Z,99.90
2022-11-24T21:48:47.884Z,99.90
2022-11-24T21:50:49.618Z,99.90
2022-11-24T21:52:51.727Z,99.90
2022-11-24T21:54:53.374Z,99.90
2022-11-24T21:56:55.508Z,99.90
2022-11-24T21:58:58.155Z,99.90
2022-11-24T22:01:04.602Z,99.90
2022-11-24T22:03:06.333Z,99.90
2022-11-24T22:05:08.632Z,99.90
2022-11-24T22:07:10.307Z,99.90
2022-11-24T22:09:17.550Z,99.90
2022-11-24T22:11:23.185Z,99.90
2022-11-24T22:13:24.863Z,99.90
2022-11-24T22:15:26.508Z,99.90
2022-11-24T22:17:31.054Z,99.90
2022-11-24T22:19:32.752Z,99.90
2022-11-24T22:21:34.418Z,99.90
2022-11-24T22:23:36.748Z,99.90
2022-11-24T22:25:38.387Z,99.90
2022-11-24T22:27:40.077Z,99.90
2022-11-24T22:29:41.798Z,99.90
2022-11-24T22:31:43.492Z,99.90
2022-11-24T22:33:46.158Z,99.90
2022-11-24T22:35:58.739Z,99.90
2022-11-24T22:38:00.393Z,99.90
2022-11-24T22:40:02.297Z,99.90
2022-11-24T22:42:04.143Z,99.90
2022-11-24T22:44:06.248Z,99.90
2022-11-24T22:46:11.016Z,99.90
2022-11-24T22:48:12.841Z,99.90
2022-11-24T22:50:14.653Z,99.90
2022-11-24T22:52:16.281Z,99.90
2022-11-24T22:54:17.978Z,99.90
2022-11-24T22:56:20.496Z,99.90
2022-11-24T22:58:22.196Z,99.90
2022-11-24T23:00:23.897Z,99.90
2022-11-24T23:02:25.609Z,99.90
2022-11-24T23:04:27.591Z,99.90
2022-11-24T23:06:31.143Z,99.90
2022-11-24T23:08:34.365Z,99.90
2022-11-24T23:10:36.071Z,99.90
2022-11-24T23:12:37.727Z,99.90
2022-11-24T23:14:39.763Z,99.90
2022-11-24T23:16:42.781Z,99.90
2022-11-24T23:18:49.819Z,99.90
2022-11-24T23:20:54.208Z,99.90
2022-11-24T23:22:56.915Z,99.90
2022-11-24T23:24:58.575Z,99.90
2022-11-24T23:27:00.283Z,99.90
2022-11-24T23:29:02.943Z,99.90
2022-11-24T23:31:13.345Z,99.90
2022-11-24T23:33:15.155Z,99.90
2022-11-24T23:35:17.096Z,99.90
2022-11-24T23:37:18.866Z,99.90
2022-11-24T23:39:20.561Z,99.90
2022-11-24T23:41:24.752Z,99.90
2022-11-24T23:43:27.061Z,99.90
2022-11-24T23:45:28.910Z,99.90
2022-11-24T23:47:30.974Z,99.90
2022-11-24T23:49:32.625Z,99.90
2022-11-24T23:51:34.320Z,99.90
2022-11-24T23:53:36.173Z,99.90
2022-11-24T23:55:37.870Z,99.90
2022-11-24T23:57:39.664Z,99.90
2022-11-24T23:59:42.257Z,99.90
